sensor_id;sensor_type;location;lat;lon;timestamp;pressure;altitude;pressure_sealevel;temperature;humidity
10940;BME280;5522;42.696;23.494;2022-09-23T00:00:58;53630.66;;;-139.68;100.00
10940;BME280;5522;42.696;23.494;2022-09-23T00:03:27;53622.63;;;-139.68;100.00
10940;BME280;5522;42.696;23.494;2022-09-23T00:05:58;53630.66;;;-139.68;100.00
10940;BME280;5522;42.696;23.494;2022-09-23T00:08:25;53646.75;;;-139.68;100.00
10940;BME280;5522;42.696;23.494;2022-09-23T00:10:52;53658.81;;;-139.68;100.00
10940;BME280;5522;42.696;23.494;2022-09-23T00:13:21;53646.75;;;-139.68;100.00
10940;BME280;5522;42.696;23.494;2022-09-23T00:15:48;53638.72;;;-139.68;100.00
10940;BME280;5522;42.696;23.494;2022-09-23T00:18:15;53654.78;;;-139.68;100.00
10940;BME280;5522;42.696;23.494;2022-09-23T00:20:42;53646.75;;;-139.68;100.00
10940;BME280;5522;42.696;23.494;2022-09-23T00:23:09;53654.78;;;-139.68;100.00
10940;BME280;5522;42.696;23.494;2022-09-23T00:25:36;53658.81;;;-139.68;100.00
10940;BME280;5522;42.696;23.494;2022-09-23T00:28:03;53626.66;;;-139.68;100.00
10940;BME280;5522;42.696;23.494;2022-09-23T00:30:31;53626.66;;;-139.68;100.00
10940;BME280;5522;42.696;23.494;2022-09-23T00:32:58;53666.84;;;-139.68;100.00
10940;BME280;5522;42.696;23.494;2022-09-23T00:35:25;53630.66;;;-139.68;100.00
10940;BME280;5522;42.696;23.494;2022-09-23T00:37:51;53608.56;;;-139.68;100.00
10940;BME280;5522;42.696;23.494;2022-09-23T00:40:18;53612.56;;;-139.68;100.00
10940;BME280;5522;42.696;23.494;2022-09-23T00:42:46;53654.78;;;-139.68;100.00
10940;BME280;5522;42.696;23.494;2022-09-23T00:45:13;53638.72;;;-139.68;100.00
10940;BME280;5522;42.696;23.494;2022-09-23T00:47:44;53642.72;;;-139.68;100.00
10940;BME280;5522;42.696;23.494;2022-09-23T00:50:17;53670.88;;;-139.68;100.00
10940;BME280;5522;42.696;23.494;2022-09-23T00:52:46;53670.88;;;-139.68;100.00
10940;BME280;5522;42.696;23.494;2022-09-23T00:55:17;53638.72;;;-139.68;100.00
10940;BME280;5522;42.696;23.494;2022-09-23T00:57:46;53586.44;;;-139.68;100.00
10940;BME280;5522;42.696;23.494;2022-09-23T01:05:37;53654.78;;;-139.68;100.00
10940;BME280;5522;42.696;23.494;2022-09-23T01:08:05;53622.63;;;-139.68;100.00
10940;BME280;5522;42.696;23.494;2022-09-23T01:10:39;53628.66;;;-139.68;100.00
10940;BME280;5522;42.696;23.494;2022-09-23T01:13:15;53604.53;;;-139.68;100.00
10940;BME280;5522;42.696;23.494;2022-09-23T01:15:47;53668.88;;;-139.68;100.00
10940;BME280;5522;42.696;23.494;2022-09-23T01:18:27;53656.81;;;-139.68;100.00
10940;BME280;5522;42.696;23.494;2022-09-23T01:24:10;53610.56;;;-139.68;100.00
10940;BME280;5522;42.696;23.494;2022-09-23T01:26:57;53624.63;;;-139.68;100.00
10940;BME280;5522;42.696;23.494;2022-09-23T01:29:39;53622.63;;;-139.68;100.00
10940;BME280;5522;42.696;23.494;2022-09-23T01:32:18;53604.53;;;-139.68;100.00
10940;BME280;5522;42.696;23.494;2022-09-23T01:34:59;53654.78;;;-139.68;100.00
10940;BME280;5522;42.696;23.494;2022-09-23T01:37:33;53630.66;;;-139.68;100.00
10940;BME280;5522;42.696;23.494;2022-09-23T01:40:05;53604.53;;;-139.68;100.00
10940;BME280;5522;42.696;23.494;2022-09-23T01:42:36;53642.72;;;-139.68;100.00
10940;BME280;5522;42.696;23.494;2022-09-23T01:45:08;53656.81;;;-139.68;100.00
10940;BME280;5522;42.696;23.494;2022-09-23T01:47:41;53610.56;;;-139.68;100.00
10940;BME280;5522;42.696;23.494;2022-09-23T01:50:15;53626.66;;;-139.68;100.00
10940;BME280;5522;42.696;23.494;2022-09-23T01:53:04;53604.53;;;-139.68;100.00
10940;BME280;5522;42.696;23.494;2022-09-23T01:55:35;53624.63;;;-139.68;100.00
10940;BME280;5522;42.696;23.494;2022-09-23T01:58:06;53604.53;;;-139.68;100.00
10940;BME280;5522;42.696;23.494;2022-09-23T02:00:38;53652.78;;;-139.68;100.00
10940;BME280;5522;42.696;23.494;2022-09-23T02:03:11;53660.81;;;-139.68;100.00
10940;BME280;5522;42.696;23.494;2022-09-23T02:05:42;53614.59;;;-139.68;100.00
10940;BME280;5522;42.696;23.494;2022-09-23T02:08:15;53626.66;;;-139.68;100.00
10940;BME280;5522;42.696;23.494;2022-09-23T02:10:46;53602.53;;;-139.68;100.00
10940;BME280;5522;42.696;23.494;2022-09-23T02:13:18;53610.56;;;-139.68;100.00
10940;BME280;5522;42.696;23.494;2022-09-23T02:15:50;53594.50;;;-139.68;100.00
10940;BME280;5522;42.696;23.494;2022-09-23T02:18:23;53634.69;;;-139.68;100.00
10940;BME280;5522;42.696;23.494;2022-09-23T02:20:55;53634.69;;;-139.68;100.00
10940;BME280;5522;42.696;23.494;2022-09-23T02:23:28;53618.63;;;-139.68;100.00
10940;BME280;5522;42.696;23.494;2022-09-23T02:26:00;53632.69;;;-139.68;100.00
10940;BME280;5522;42.696;23.494;2022-09-23T02:28:32;53658.81;;;-139.68;100.00
10940;BME280;5522;42.696;23.494;2022-09-23T02:31:06;53596.50;;;-139.68;100.00
10940;BME280;5522;42.696;23.494;2022-09-23T02:33:42;53612.56;;;-139.68;100.00
10940;BME280;5522;42.696;23.494;2022-09-23T02:36:16;53622.63;;;-139.68;100.00
10940;BME280;5522;42.696;23.494;2022-09-23T02:38:52;53638.72;;;-139.68;100.00
10940;BME280;5522;42.696;23.494;2022-09-23T02:41:25;53630.66;;;-139.68;100.00
10940;BME280;5522;42.696;23.494;2022-09-23T02:44:00;53600.53;;;-139.68;100.00
10940;BME280;5522;42.696;23.494;2022-09-23T02:46:28;53610.56;;;-139.68;100.00
10940;BME280;5522;42.696;23.494;2022-09-23T02:48:59;53614.59;;;-139.68;100.00
10940;BME280;5522;42.696;23.494;2022-09-23T02:51:29;53642.72;;;-139.68;100.00
10940;BME280;5522;42.696;23.494;2022-09-23T02:53:59;53634.69;;;-139.68;100.00
10940;BME280;5522;42.696;23.494;2022-09-23T02:56:27;53590.47;;;-139.68;100.00
10940;BME280;5522;42.696;23.494;2022-09-23T02:58:54;53572.38;;;-139.68;100.00
10940;BME280;5522;42.696;23.494;2022-09-23T03:01:32;53626.66;;;-139.68;100.00
10940;BME280;5522;42.696;23.494;2022-09-23T03:04:12;53616.59;;;-139.68;100.00
10940;BME280;5522;42.696;23.494;2022-09-23T03:06:50;53594.50;;;-139.68;100.00
10940;BME280;5522;42.696;23.494;2022-09-23T03:09:23;53630.66;;;-139.68;100.00
10940;BME280;5522;42.696;23.494;2022-09-23T03:11:57;53596.50;;;-139.68;100.00
10940;BME280;5522;42.696;23.494;2022-09-23T03:14:30;53614.59;;;-139.68;100.00
10940;BME280;5522;42.696;23.494;2022-09-23T03:17:03;53622.63;;;-139.68;100.00
10940;BME280;5522;42.696;23.494;2022-09-23T03:19:36;53622.63;;;-139.68;100.00
10940;BME280;5522;42.696;23.494;2022-09-23T03:22:09;53634.69;;;-139.68;100.00
10940;BME280;5522;42.696;23.494;2022-09-23T03:24:38;53606.56;;;-139.68;100.00
10940;BME280;5522;42.696;23.494;2022-09-23T03:27:11;53616.59;;;-139.68;100.00
10940;BME280;5522;42.696;23.494;2022-09-23T03:29:43;53612.56;;;-139.68;100.00
10940;BME280;5522;42.696;23.494;2022-09-23T03:32:12;53600.53;;;-139.68;100.00
10940;BME280;5522;42.696;23.494;2022-09-23T03:34:42;53634.69;;;-139.68;100.00
10940;BME280;5522;42.696;23.494;2022-09-23T03:37:14;53588.47;;;-139.68;100.00
10940;BME280;5522;42.696;23.494;2022-09-23T03:39:47;53602.53;;;-139.68;100.00
10940;BME280;5522;42.696;23.494;2022-09-23T03:42:20;53598.50;;;-139.68;100.00
10940;BME280;5522;42.696;23.494;2022-09-23T03:44:51;53602.53;;;-139.68;100.00
10940;BME280;5522;42.696;23.494;2022-09-23T03:47:19;53624.63;;;-139.68;100.00
10940;BME280;5522;42.696;23.494;2022-09-23T03:49:49;53656.81;;;-139.68;100.00
10940;BME280;5522;42.696;23.494;2022-09-23T03:52:19;53616.59;;;-139.68;100.00
10940;BME280;5522;42.696;23.494;2022-09-23T03:54:47;53566.34;;;-139.68;100.00
10940;BME280;5522;42.696;23.494;2022-09-23T03:57:15;53574.38;;;-139.68;100.00
10940;BME280;5522;42.696;23.494;2022-09-23T03:59:42;53654.78;;;-139.68;100.00
10940;BME280;5522;42.696;23.494;2022-09-23T04:02:09;53590.47;;;-139.68;100.00
10940;BME280;5522;42.696;23.494;2022-09-23T04:04:37;53606.56;;;-139.68;100.00
10940;BME280;5522;42.696;23.494;2022-09-23T04:07:07;53644.75;;;-139.68;100.00
10940;BME280;5522;42.696;23.494;2022-09-23T04:09:34;53618.63;;;-139.68;100.00
10940;BME280;5522;42.696;23.494;2022-09-23T04:12:01;53606.56;;;-139.68;100.00
10940;BME280;5522;42.696;23.494;2022-09-23T04:14:29;53602.53;;;-139.68;100.00
10940;BME280;5522;42.696;23.494;2022-09-23T04:16:56;53630.66;;;-139.68;100.00
10940;BME280;5522;42.696;23.494;2022-09-23T04:19:22;53610.56;;;-139.68;100.00
10940;BME280;5522;42.696;23.494;2022-09-23T04:21:49;53642.72;;;-139.68;100.00
10940;BME280;5522;42.696;23.494;2022-09-23T04:24:18;53646.75;;;-139.68;100.00
10940;BME280;5522;42.696;23.494;2022-09-23T04:26:44;53596.50;;;-139.68;100.00
10940;BME280;5522;42.696;23.494;2022-09-23T04:29:11;53658.81;;;-139.68;100.00
10940;BME280;5522;42.696;23.494;2022-09-23T04:31:38;53634.69;;;-139.68;100.00
10940;BME280;5522;42.696;23.494;2022-09-23T04:34:05;53634.69;;;-139.68;100.00
10940;BME280;5522;42.696;23.494;2022-09-23T04:36:32;53610.56;;;-139.68;100.00
10940;BME280;5522;42.696;23.494;2022-09-23T04:39:00;53662.84;;;-139.68;100.00
10940;BME280;5522;42.696;23.494;2022-09-23T04:41:28;53580.41;;;-139.68;100.00
10940;BME280;5522;42.696;23.494;2022-09-23T04:43:55;53626.66;;;-139.68;100.00
10940;BME280;5522;42.696;23.494;2022-09-23T04:46:23;53614.59;;;-139.68;100.00
10940;BME280;5522;42.696;23.494;2022-09-23T04:48:50;53634.69;;;-139.68;100.00
10940;BME280;5522;42.696;23.494;2022-09-23T04:51:19;53618.63;;;-139.68;100.00
10940;BME280;5522;42.696;23.494;2022-09-23T04:53:48;53626.66;;;-139.68;100.00
10940;BME280;5522;42.696;23.494;2022-09-23T04:56:17;53632.69;;;-139.68;100.00
10940;BME280;5522;42.696;23.494;2022-09-23T04:58:46;53650.78;;;-139.68;100.00
10940;BME280;5522;42.696;23.494;2022-09-23T05:01:15;53650.78;;;-139.68;100.00
10940;BME280;5522;42.696;23.494;2022-09-23T05:03:42;53618.63;;;-139.68;100.00
10940;BME280;5522;42.696;23.494;2022-09-23T05:06:11;53594.50;;;-139.68;100.00
10940;BME280;5522;42.696;23.494;2022-09-23T05:08:39;53554.28;;;-139.68;100.00
10940;BME280;5522;42.696;23.494;2022-09-23T05:11:06;53660.81;;;-139.68;100.00
10940;BME280;5522;42.696;23.494;2022-09-23T05:13:33;53634.69;;;-139.68;100.00
10940;BME280;5522;42.696;23.494;2022-09-23T05:16:04;53660.81;;;-139.68;100.00
10940;BME280;5522;42.696;23.494;2022-09-23T05:18:33;53695.00;;;-139.68;100.00
10940;BME280;5522;42.696;23.494;2022-09-23T05:21:00;53680.94;;;-139.68;100.00
10940;BME280;5522;42.696;23.494;2022-09-23T05:23:28;53666.84;;;-139.68;100.00
10940;BME280;5522;42.696;23.494;2022-09-23T05:25:56;53672.88;;;-139.68;100.00
10940;BME280;5522;42.696;23.494;2022-09-23T05:28:23;53666.84;;;-139.68;100.00
10940;BME280;5522;42.696;23.494;2022-09-23T05:30:51;53693.00;;;-139.68;100.00
10940;BME280;5522;42.696;23.494;2022-09-23T05:33:19;53686.97;;;-139.68;100.00
10940;BME280;5522;42.696;23.494;2022-09-23T05:35:46;53695.00;;;-139.68;100.00
10940;BME280;5522;42.696;23.494;2022-09-23T05:38:13;53684.94;;;-139.68;100.00
10940;BME280;5522;42.696;23.494;2022-09-23T05:40:42;53652.78;;;-139.68;100.00
10940;BME280;5522;42.696;23.494;2022-09-23T05:43:09;53654.78;;;-139.68;100.00
10940;BME280;5522;42.696;23.494;2022-09-23T05:45:36;53705.06;;;-139.68;100.00
10940;BME280;5522;42.696;23.494;2022-09-23T05:48:03;53650.78;;;-139.68;100.00
10940;BME280;5522;42.696;23.494;2022-09-23T05:50:31;53646.75;;;-139.68;100.00
10940;BME280;5522;42.696;23.494;2022-09-23T05:52:58;53682.94;;;-139.68;100.00
10940;BME280;5522;42.696;23.494;2022-09-23T05:55:25;53666.84;;;-139.68;100.00
10940;BME280;5522;42.696;23.494;2022-09-23T05:57:53;53690.97;;;-139.68;100.00
10940;BME280;5522;42.696;23.494;2022-09-23T06:00:19;53703.03;;;-139.68;100.00
10940;BME280;5522;42.696;23.494;2022-09-23T06:02:46;53682.94;;;-139.68;100.00
10940;BME280;5522;42.696;23.494;2022-09-23T06:05:14;53731.19;;;-139.68;100.00
10940;BME280;5522;42.696;23.494;2022-09-23T06:07:43;53707.06;;;-139.68;100.00
10940;BME280;5522;42.696;23.494;2022-09-23T06:10:10;53684.94;;;-139.68;100.00
10940;BME280;5522;42.696;23.494;2022-09-23T06:12:37;53701.03;;;-139.68;100.00
10940;BME280;5522;42.696;23.494;2022-09-23T06:15:05;53678.91;;;-139.68;100.00
10940;BME280;5522;42.696;23.494;2022-09-23T06:17:32;53767.38;;;-139.68;98.33
10940;BME280;5522;42.696;23.494;2022-09-23T06:19:59;53725.16;;;-139.68;94.54
10940;BME280;5522;42.696;23.494;2022-09-23T06:22:25;53735.19;;;-139.68;91.63
10940;BME280;5522;42.696;23.494;2022-09-23T06:24:54;53731.19;;;-139.68;92.29
10940;BME280;5522;42.696;23.494;2022-09-23T06:27:20;53723.13;;;-139.68;92.54
10940;BME280;5522;42.696;23.494;2022-09-23T06:29:47;53735.19;;;-139.68;92.54
10940;BME280;5522;42.696;23.494;2022-09-23T06:32:17;53697.00;;;-139.68;92.38
10940;BME280;5522;42.696;23.494;2022-09-23T06:34:44;53711.09;;;-139.68;96.04
10940;BME280;5522;42.696;23.494;2022-09-23T06:37:11;53721.13;;;-139.68;96.84
10940;BME280;5522;42.696;23.494;2022-09-23T06:39:37;53731.19;;;-139.68;96.12
10940;BME280;5522;42.696;23.494;2022-09-23T06:42:06;53695.00;;;-139.68;93.89
10940;BME280;5522;42.696;23.494;2022-09-23T06:44:33;53725.16;;;-139.68;96.93
10940;BME280;5522;42.696;23.494;2022-09-23T06:47:00;53709.06;;;-139.68;94.04
10940;BME280;5522;42.696;23.494;2022-09-23T06:49:27;53743.25;;;-139.68;89.19
10940;BME280;5522;42.696;23.494;2022-09-23T06:51:54;53715.09;;;-139.68;85.43
10940;BME280;5522;42.696;23.494;2022-09-23T06:54:21;53731.19;;;-139.68;77.74
10940;BME280;5522;42.696;23.494;2022-09-23T06:56:48;53731.19;;;-139.68;65.42
10940;BME280;5522;42.696;23.494;2022-09-23T06:59:16;53739.22;;;-139.68;46.92
10940;BME280;5522;42.696;23.494;2022-09-23T07:01:43;53807.56;;;-139.68;43.00
10940;BME280;5522;42.696;23.494;2022-09-23T07:04:12;53803.56;;;-139.68;44.34
10940;BME280;5522;42.696;23.494;2022-09-23T07:06:39;53783.44;;;-139.68;42.61
10940;BME280;5522;42.696;23.494;2022-09-23T07:09:07;53851.81;;;-139.68;38.54
10940;BME280;5522;42.696;23.494;2022-09-23T07:11:35;53835.72;;;-139.68;36.38
10940;BME280;5522;42.696;23.494;2022-09-23T07:14:02;53795.50;;;-139.68;34.86
10940;BME280;5522;42.696;23.494;2022-09-23T07:16:30;53853.81;;;-139.68;32.94
10940;BME280;5522;42.696;23.494;2022-09-23T07:18:58;53863.88;;;-139.68;32.20
10940;BME280;5522;42.696;23.494;2022-09-23T07:21:24;53815.63;;;-139.68;33.70
10940;BME280;5522;42.696;23.494;2022-09-23T07:23:52;53867.88;;;-139.68;35.73
10940;BME280;5522;42.696;23.494;2022-09-23T07:26:20;53863.88;;;-139.68;37.62
10940;BME280;5522;42.696;23.494;2022-09-23T07:28:52;53847.78;;;-139.68;37.70
10940;BME280;5522;42.696;23.494;2022-09-23T07:31:19;53875.94;;;-139.68;37.61
10940;BME280;5522;42.696;23.494;2022-09-23T07:33:48;53883.97;;;-139.68;38.21
10940;BME280;5522;42.696;23.494;2022-09-23T07:36:16;53839.75;;;-139.68;40.14
10940;BME280;5522;42.696;23.494;2022-09-23T07:38:44;53871.91;;;-139.68;42.21
10940;BME280;5522;42.696;23.494;2022-09-23T07:41:13;53890.00;;;-139.68;42.91
10940;BME280;5522;42.696;23.494;2022-09-23T07:43:41;53859.84;;;-139.68;41.48
10940;BME280;5522;42.696;23.494;2022-09-23T07:46:11;53841.75;;;-139.68;39.96
10940;BME280;5522;42.696;23.494;2022-09-23T07:48:39;53827.69;;;-139.68;36.77
10940;BME280;5522;42.696;23.494;2022-09-23T07:51:08;53843.75;;;-139.68;34.11
10940;BME280;5522;42.696;23.494;2022-09-23T07:53:35;53879.94;;;-139.68;30.65
10940;BME280;5522;42.696;23.494;2022-09-23T07:56:03;53817.63;;;-139.68;30.61
10940;BME280;5522;42.696;23.494;2022-09-23T07:58:31;53855.81;;;-139.68;31.08
10940;BME280;5522;42.696;23.494;2022-09-23T08:01:01;53851.81;;;-139.68;31.49
10940;BME280;5522;42.696;23.494;2022-09-23T08:03:29;53904.06;;;-139.68;31.69
10940;BME280;5522;42.696;23.494;2022-09-23T08:06:02;53843.75;;;-139.68;31.89
10940;BME280;5522;42.696;23.494;2022-09-23T08:08:31;53859.84;;;-139.68;31.97
10940;BME280;5522;42.696;23.494;2022-09-23T08:11:02;53871.91;;;-139.68;33.36
10940;BME280;5522;42.696;23.494;2022-09-23T08:13:29;53815.63;;;-139.68;35.80
10940;BME280;5522;42.696;23.494;2022-09-23T08:15:57;53823.66;;;-139.68;34.62
10940;BME280;5522;42.696;23.494;2022-09-23T08:18:24;53841.75;;;-139.68;33.31
10940;BME280;5522;42.696;23.494;2022-09-23T08:20:51;53837.72;;;-139.68;32.05
10940;BME280;5522;42.696;23.494;2022-09-23T08:23:18;53839.75;;;-139.68;30.54
10940;BME280;5522;42.696;23.494;2022-09-23T08:25:46;53841.75;;;-139.68;30.48
10940;BME280;5522;42.696;23.494;2022-09-23T08:28:14;53831.69;;;-139.68;30.80
10940;BME280;5522;42.696;23.494;2022-09-23T08:30:43;53855.81;;;-139.68;29.65
10940;BME280;5522;42.696;23.494;2022-09-23T08:33:10;53855.81;;;-139.68;28.55
10940;BME280;5522;42.696;23.494;2022-09-23T08:35:38;53853.81;;;-139.68;28.40
10940;BME280;5522;42.696;23.494;2022-09-23T08:38:05;53873.91;;;-139.68;27.78
10940;BME280;5522;42.696;23.494;2022-09-23T08:40:33;53873.91;;;-139.68;29.16
10940;BME280;5522;42.696;23.494;2022-09-23T08:43:04;53883.97;;;-139.68;30.24
10940;BME280;5522;42.696;23.494;2022-09-23T08:45:33;53875.94;;;-139.68;28.97
10940;BME280;5522;42.696;23.494;2022-09-23T08:48:03;53920.16;;;-139.68;27.44
10940;BME280;5522;42.696;23.494;2022-09-23T08:50:36;53875.94;;;-139.68;28.20
10940;BME280;5522;42.696;23.494;2022-09-23T08:53:12;53851.81;;;-139.68;26.78
10940;BME280;5522;42.696;23.494;2022-09-23T08:55:45;53883.97;;;-139.68;26.58
10940;BME280;5522;42.696;23.494;2022-09-23T08:58:31;53904.06;;;-139.68;25.24
10940;BME280;5522;42.696;23.494;2022-09-23T09:01:13;53839.75;;;-139.68;25.10
10940;BME280;5522;42.696;23.494;2022-09-23T09:03:45;53847.78;;;-139.68;26.23
10940;BME280;5522;42.696;23.494;2022-09-23T09:06:17;53839.75;;;-139.68;25.80
10940;BME280;5522;42.696;23.494;2022-09-23T09:08:51;53847.78;;;-139.68;25.09
10940;BME280;5522;42.696;23.494;2022-09-23T09:11:21;53869.91;;;-139.68;24.78
10940;BME280;5522;42.696;23.494;2022-09-23T09:13:59;53879.94;;;-139.68;25.04
10940;BME280;5522;42.696;23.494;2022-09-23T09:16:50;53867.88;;;-139.68;25.83
10940;BME280;5522;42.696;23.494;2022-09-23T09:19:20;53867.88;;;-139.68;26.02
10940;BME280;5522;42.696;23.494;2022-09-23T09:21:52;53857.84;;;-139.68;24.98
10940;BME280;5522;42.696;23.494;2022-09-23T09:24:26;53857.84;;;-139.68;24.28
10940;BME280;5522;42.696;23.494;2022-09-23T09:26:57;53875.94;;;-139.68;24.63
10940;BME280;5522;42.696;23.494;2022-09-23T09:29:27;53869.91;;;-139.68;25.83
10940;BME280;5522;42.696;23.494;2022-09-23T09:31:58;53855.81;;;-139.68;25.50
10940;BME280;5522;42.696;23.494;2022-09-23T09:34:29;53879.94;;;-139.68;26.38
10940;BME280;5522;42.696;23.494;2022-09-23T09:37:04;53875.94;;;-139.68;25.90
10940;BME280;5522;42.696;23.494;2022-09-23T09:39:33;53815.63;;;-139.68;25.13
10940;BME280;5522;42.696;23.494;2022-09-23T09:42:01;53841.75;;;-139.68;23.73
10940;BME280;5522;42.696;23.494;2022-09-23T09:44:34;53863.88;;;-139.68;24.14
10940;BME280;5522;42.696;23.494;2022-09-23T09:47:16;53869.91;;;-139.68;25.19
10940;BME280;5522;42.696;23.494;2022-09-23T09:49:50;53883.97;;;-139.68;25.62
10940;BME280;5522;42.696;23.494;2022-09-23T09:52:21;53904.06;;;-139.68;25.40
10940;BME280;5522;42.696;23.494;2022-09-23T09:54:51;53877.94;;;-139.68;25.02
10940;BME280;5522;42.696;23.494;2022-09-23T09:57:27;53827.69;;;-139.68;25.57
10940;BME280;5522;42.696;23.494;2022-09-23T10:00:16;53908.09;;;-139.68;25.38
10940;BME280;5522;42.696;23.494;2022-09-23T10:02:43;53875.94;;;-139.68;26.34
10940;BME280;5522;42.696;23.494;2022-09-23T10:05:23;53877.94;;;-139.68;25.57
10940;BME280;5522;42.696;23.494;2022-09-23T10:07:51;53863.88;;;-139.68;24.26
10940;BME280;5522;42.696;23.494;2022-09-23T10:10:20;53851.81;;;-139.68;24.00
10940;BME280;5522;42.696;23.494;2022-09-23T10:12:49;53892.00;;;-139.68;25.32
10940;BME280;5522;42.696;23.494;2022-09-23T10:15:27;53849.78;;;-139.68;24.59
10940;BME280;5522;42.696;23.494;2022-09-23T10:17:58;53869.91;;;-139.68;25.27
10940;BME280;5522;42.696;23.494;2022-09-23T10:20:31;53883.97;;;-139.68;23.59
10940;BME280;5522;42.696;23.494;2022-09-23T10:23:05;53904.06;;;-139.68;25.47
10940;BME280;5522;42.696;23.494;2022-09-23T10:25:34;53867.88;;;-139.68;25.77
10940;BME280;5522;42.696;23.494;2022-09-23T10:28:29;53867.88;;;-139.68;25.99
10940;BME280;5522;42.696;23.494;2022-09-23T10:31:05;53861.84;;;-139.68;24.99
10940;BME280;5522;42.696;23.494;2022-09-23T10:33:32;53879.94;;;-139.68;25.68
10940;BME280;5522;42.696;23.494;2022-09-23T10:36:00;53867.88;;;-139.68;24.84
10940;BME280;5522;42.696;23.494;2022-09-23T10:38:27;53863.88;;;-139.68;25.85
10940;BME280;5522;42.696;23.494;2022-09-23T10:40:55;53879.94;;;-139.68;26.12
10940;BME280;5522;42.696;23.494;2022-09-23T10:43:56;53861.84;;;-139.68;27.44
10940;BME280;5522;42.696;23.494;2022-09-23T10:46:53;53910.09;;;-139.68;28.08
10940;BME280;5522;42.696;23.494;2022-09-23T10:49:51;53859.84;;;-139.68;32.01
10940;BME280;5522;42.696;23.494;2022-09-23T10:55:26;53879.94;;;-139.68;34.51
10940;BME280;5522;42.696;23.494;2022-09-23T10:58:06;53885.97;;;-139.68;32.80
10940;BME280;5522;42.696;23.494;2022-09-23T11:00:43;53871.91;;;-139.68;33.95
10940;BME280;5522;42.696;23.494;2022-09-23T11:03:49;53861.84;;;-139.68;34.69
10940;BME280;5522;42.696;23.494;2022-09-23T11:06:27;53839.75;;;-139.68;33.75
10940;BME280;5522;42.696;23.494;2022-09-23T11:09:08;53875.94;;;-139.68;33.18
10940;BME280;5522;42.696;23.494;2022-09-23T11:11:48;53879.94;;;-139.68;34.24
10940;BME280;5522;42.696;23.494;2022-09-23T11:14:30;53867.88;;;-139.68;38.07
10940;BME280;5522;42.696;23.494;2022-09-23T11:17:23;53853.81;;;-139.68;37.10
10940;BME280;5522;42.696;23.494;2022-09-23T11:20:04;53837.72;;;-139.68;35.39
10940;BME280;5522;42.696;23.494;2022-09-23T11:22:47;53855.81;;;-139.68;35.81
10940;BME280;5522;42.696;23.494;2022-09-23T11:25:33;53843.75;;;-139.68;35.46
10940;BME280;5522;42.696;23.494;2022-09-23T11:28:25;53833.72;;;-139.68;35.27
10940;BME280;5522;42.696;23.494;2022-09-23T11:31:06;53839.75;;;-139.68;35.77
10940;BME280;5522;42.696;23.494;2022-09-23T11:33:46;53861.84;;;-139.68;35.85
10940;BME280;5522;42.696;23.494;2022-09-23T11:36:25;53827.69;;;-139.68;35.46
10940;BME280;5522;42.696;23.494;2022-09-23T11:38:59;53849.78;;;-139.68;34.32
10940;BME280;5522;42.696;23.494;2022-09-23T11:41:28;53863.88;;;-139.68;35.21
10940;BME280;5522;42.696;23.494;2022-09-23T11:44:00;53855.81;;;-139.68;35.54
10940;BME280;5522;42.696;23.494;2022-09-23T11:46:33;53861.84;;;-139.68;35.55
10940;BME280;5522;42.696;23.494;2022-09-23T11:49:06;53843.75;;;-139.68;35.25
10940;BME280;5522;42.696;23.494;2022-09-23T11:51:40;53841.75;;;-139.68;33.75
10940;BME280;5522;42.696;23.494;2022-09-23T11:54:11;53827.69;;;-139.68;35.38
10940;BME280;5522;42.696;23.494;2022-09-23T11:56:44;53847.78;;;-139.68;34.95
10940;BME280;5522;42.696;23.494;2022-09-23T11:59:17;53847.78;;;-139.68;33.96
10940;BME280;5522;42.696;23.494;2022-09-23T12:01:53;53861.84;;;-139.68;33.58
10940;BME280;5522;42.696;23.494;2022-09-23T12:04:26;53859.84;;;-139.68;34.70
10940;BME280;5522;42.696;23.494;2022-09-23T12:06:59;53831.69;;;-139.68;36.98
10940;BME280;5522;42.696;23.494;2022-09-23T12:09:33;53839.75;;;-139.68;36.87
10940;BME280;5522;42.696;23.494;2022-09-23T12:12:07;53855.81;;;-139.68;37.78
10940;BME280;5522;42.696;23.494;2022-09-23T12:14:55;53833.72;;;-139.68;37.30
10940;BME280;5522;42.696;23.494;2022-09-23T12:20:47;53861.84;;;-139.68;39.04
10940;BME280;5522;42.696;23.494;2022-09-23T12:23:35;53863.88;;;-139.68;39.18
10940;BME280;5522;42.696;23.494;2022-09-23T12:26:05;53871.91;;;-139.68;39.42
10940;BME280;5522;42.696;23.494;2022-09-23T12:28:35;53839.75;;;-139.68;39.76
10940;BME280;5522;42.696;23.494;2022-09-23T12:31:08;53859.84;;;-139.68;41.26
10940;BME280;5522;42.696;23.494;2022-09-23T12:33:36;53841.75;;;-139.68;44.00
10940;BME280;5522;42.696;23.494;2022-09-23T12:36:05;53815.63;;;-139.68;41.95
10940;BME280;5522;42.696;23.494;2022-09-23T12:38:37;53839.75;;;-139.68;42.25
10940;BME280;5522;42.696;23.494;2022-09-23T12:41:18;53813.59;;;-139.68;42.24
10940;BME280;5522;42.696;23.494;2022-09-23T12:43:50;53823.66;;;-139.68;41.96
10940;BME280;5522;42.696;23.494;2022-09-23T12:46:21;53851.81;;;-139.68;40.31
10940;BME280;5522;42.696;23.494;2022-09-23T12:49:01;53805.56;;;-139.68;40.91
10940;BME280;5522;42.696;23.494;2022-09-23T12:51:29;53831.69;;;-139.68;42.42
10940;BME280;5522;42.696;23.494;2022-09-23T12:57:00;53803.56;;;-139.68;41.85
10940;BME280;5522;42.696;23.494;2022-09-23T12:59:30;53799.53;;;-139.68;42.09
10940;BME280;5522;42.696;23.494;2022-09-23T13:02:30;53827.69;;;-139.68;43.37
10940;BME280;5522;42.696;23.494;2022-09-23T13:05:08;53857.84;;;-139.68;44.71
10940;BME280;5522;42.696;23.494;2022-09-23T13:08:00;53837.72;;;-139.68;45.96
10940;BME280;5522;42.696;23.494;2022-09-23T13:10:31;53831.69;;;-139.68;46.39
10940;BME280;5522;42.696;23.494;2022-09-23T13:12:59;53807.56;;;-139.68;47.18
10940;BME280;5522;42.696;23.494;2022-09-23T13:15:30;53805.56;;;-139.68;49.79